createdAt,value
2022-10-05T00:00:28.561Z,20.60
2022-10-05T00:01:28.630Z,20.60
2022-10-05T00:02:28.606Z,20.61
2022-10-05T00:03:28.583Z,20.60
2022-10-05T00:04:28.609Z,20.61
2022-10-05T00:05:28.680Z,20.58
2022-10-05T00:06:28.633Z,20.58
2022-10-05T00:07:28.656Z,20.58
2022-10-05T00:08:28.675Z,20.58
2022-10-05T00:09:28.687Z,20.57
2022-10-05T00:10:28.699Z,20.57
2022-10-05T00:11:28.745Z,20.56
2022-10-05T00:12:28.780Z,20.53
2022-10-05T00:13:28.775Z,20.51
2022-10-05T00:14:28.797Z,20.54
2022-10-05T00:15:28.832Z,20.54
2022-10-05T00:16:28.908Z,20.53
2022-10-05T00:17:28.873Z,20.53
2022-10-05T00:18:28.896Z,20.51
2022-10-05T00:19:28.926Z,20.50
2022-10-05T00:20:28.938Z,20.51
2022-10-05T00:21:28.978Z,20.48
2022-10-05T00:22:28.955Z,20.48
2022-10-05T00:23:28.969Z,20.50
2022-10-05T00:24:28.992Z,20.46
2022-10-05T00:25:29.014Z,20.46
2022-10-05T00:26:29.094Z,20.44
2022-10-05T00:27:29.044Z,20.46
2022-10-05T00:28:29.283Z,20.50
2022-10-05T00:29:29.035Z,20.50
2022-10-05T00:30:29.040Z,20.46
2022-10-05T00:31:29.141Z,20.46
2022-10-05T00:32:29.062Z,20.46
2022-10-05T00:33:29.084Z,20.44
2022-10-05T00:34:29.119Z,20.46
2022-10-05T00:35:29.247Z,20.44
2022-10-05T00:36:29.189Z,20.46
2022-10-05T00:37:29.155Z,20.44
2022-10-05T00:38:29.186Z,20.44
2022-10-05T00:39:29.204Z,20.46
2022-10-05T00:40:29.211Z,20.42
2022-10-05T00:41:29.280Z,20.40
2022-10-05T00:42:29.245Z,20.41
2022-10-05T00:43:29.280Z,20.40
2022-10-05T00:44:29.313Z,20.40
2022-10-05T00:45:29.362Z,20.41
2022-10-05T00:46:29.340Z,20.41
2022-10-05T00:47:29.329Z,20.41
2022-10-05T00:48:29.352Z,20.41
2022-10-05T00:49:29.381Z,20.40
2022-10-05T00:50:29.431Z,20.41
2022-10-05T00:51:29.413Z,20.44
2022-10-05T00:52:29.392Z,20.41
2022-10-05T00:53:29.424Z,20.42
2022-10-05T00:54:29.431Z,20.40
2022-10-05T00:55:29.458Z,20.41
2022-10-05T00:56:29.491Z,20.41
2022-10-05T00:57:29.509Z,20.40
2022-10-05T00:58:29.485Z,20.40
2022-10-05T00:59:29.516Z,20.38
2022-10-05T01:00:29.524Z,20.40
2022-10-05T01:01:29.588Z,20.37
2022-10-05T01:02:34.399Z,20.34
2022-10-05T01:03:29.561Z,20.33
2022-10-05T01:04:29.608Z,20.34
2022-10-05T01:05:29.574Z,20.33
2022-10-05T01:06:29.591Z,20.34
2022-10-05T01:07:29.635Z,20.33
2022-10-05T01:08:29.641Z,20.34
2022-10-05T01:09:29.672Z,20.34
2022-10-05T01:10:29.656Z,20.34
2022-10-05T01:11:29.687Z,20.31
2022-10-05T01:12:29.679Z,20.34
2022-10-05T01:13:29.693Z,20.33
2022-10-05T01:14:29.706Z,20.31
2022-10-05T01:15:29.720Z,20.31
2022-10-05T01:16:29.879Z,20.31
2022-10-05T01:17:29.764Z,20.30
2022-10-05T01:18:29.790Z,20.27
2022-10-05T01:19:29.796Z,20.31
2022-10-05T01:20:29.800Z,20.31
2022-10-05T01:21:29.831Z,20.31
2022-10-05T01:22:29.834Z,20.27
2022-10-05T01:23:29.879Z,20.27
2022-10-05T01:24:29.850Z,20.25
2022-10-05T01:25:29.890Z,20.25
2022-10-05T01:26:29.903Z,20.25
2022-10-05T01:27:29.919Z,20.25
2022-10-05T01:28:30.030Z,20.25
2022-10-05T01:29:29.896Z,20.23
2022-10-05T01:30:29.911Z,20.23
2022-10-05T01:31:29.989Z,20.22
2022-10-05T01:32:29.914Z,20.23
2022-10-05T01:33:29.909Z,20.25
2022-10-05T01:34:29.922Z,20.25
2022-10-05T01:35:29.930Z,20.25
2022-10-05T01:36:29.933Z,20.23
2022-10-05T01:37:29.958Z,20.23
2022-10-05T01:38:29.959Z,20.22
2022-10-05T01:39:29.969Z,20.20
2022-10-05T01:40:29.995Z,20.20
2022-10-05T01:41:30.034Z,20.19
2022-10-05T01:42:30.044Z,20.17
2022-10-05T01:43:30.080Z,20.17
2022-10-05T01:44:30.086Z,20.19
2022-10-05T01:45:30.152Z,20.17
2022-10-05T01:46:30.120Z,20.17
2022-10-05T01:47:30.174Z,20.17
2022-10-05T01:48:30.174Z,20.16
2022-10-05T01:49:30.194Z,20.17
2022-10-05T01:50:30.200Z,20.19
2022-10-05T01:51:30.213Z,20.19
2022-10-05T01:52:30.251Z,20.19
2022-10-05T01:53:30.284Z,20.17
2022-10-05T01:54:30.289Z,20.17
2022-10-05T01:55:30.272Z,20.15
2022-10-05T01:56:30.312Z,20.17
2022-10-05T01:57:30.332Z,20.16
2022-10-05T01:58:30.352Z,20.15
2022-10-05T01:59:30.350Z,20.13
2022-10-05T02:00:30.369Z,20.12
2022-10-05T02:01:30.463Z,20.12
2022-10-05T02:02:30.493Z,20.13
2022-10-05T02:03:30.406Z,20.15
2022-10-05T02:05:00.333Z,20.13
2022-10-05T02:05:30.441Z,20.12
2022-10-05T02:06:30.464Z,20.10
2022-10-05T02:07:30.466Z,20.08
2022-10-05T02:08:30.470Z,20.12
2022-10-05T02:09:30.503Z,20.08
2022-10-05T02:10:30.533Z,20.08
2022-10-05T02:11:30.546Z,20.08
2022-10-05T02:12:30.597Z,20.08
2022-10-05T02:13:30.553Z,20.10
2022-10-05T02:14:30.578Z,20.10
2022-10-05T02:15:30.635Z,20.08
2022-10-05T02:16:30.625Z,20.08
2022-10-05T02:17:30.678Z,20.07
2022-10-05T02:18:30.654Z,20.05
2022-10-05T02:19:30.675Z,20.07
2022-10-05T02:20:30.725Z,20.05
2022-10-05T02:21:30.727Z,20.05
2022-10-05T02:22:30.762Z,20.02
2022-10-05T02:23:30.791Z,20.02
2022-10-05T02:24:30.805Z,20.02
2022-10-05T02:25:30.828Z,20.01
2022-10-05T02:26:30.847Z,20.04
2022-10-05T02:27:30.884Z,20.04
2022-10-05T02:28:30.954Z,20.04
2022-10-05T02:29:30.889Z,20.02
2022-10-05T02:30:30.930Z,20.01
2022-10-05T02:31:30.959Z,20.02
2022-10-05T02:32:30.874Z,20.01
2022-10-05T02:33:30.898Z,20.01
2022-10-05T02:34:30.930Z,20.04
2022-10-05T02:35:30.953Z,20.01
2022-10-05T02:36:30.995Z,20.02
2022-10-05T02:37:31.027Z,20.01
2022-10-05T02:38:30.989Z,20.00
2022-10-05T02:39:31.026Z,20.00
2022-10-05T02:40:31.045Z,20.00
2022-10-05T02:41:31.037Z,20.02
2022-10-05T02:42:31.057Z,20.01
2022-10-05T02:43:31.081Z,20.00
2022-10-05T02:44:31.129Z,19.98
2022-10-05T02:45:31.156Z,19.98
2022-10-05T02:46:31.127Z,20.00
2022-10-05T02:47:31.115Z,20.00
2022-10-05T02:48:31.118Z,20.00
2022-10-05T02:49:31.146Z,19.98
2022-10-05T02:50:31.163Z,19.98
2022-10-05T02:51:31.169Z,19.97
2022-10-05T02:52:31.194Z,19.94
2022-10-05T02:53:31.193Z,19.94
2022-10-05T02:54:31.205Z,19.95
2022-10-05T02:55:31.202Z,19.94
2022-10-05T02:56:31.241Z,19.92
2022-10-05T02:57:31.285Z,19.94
2022-10-05T02:58:31.297Z,19.90
2022-10-05T02:59:31.320Z,19.90
2022-10-05T03:00:31.311Z,19.94
2022-10-05T03:01:31.398Z,19.92
2022-10-05T03:02:31.384Z,19.92
2022-10-05T03:03:31.340Z,19.92
2022-10-05T03:04:31.365Z,19.94
2022-10-05T03:05:31.342Z,19.94
2022-10-05T03:06:31.363Z,19.92
2022-10-05T03:07:31.401Z,19.92
2022-10-05T03:08:31.440Z,19.92
2022-10-05T03:09:31.460Z,19.92
2022-10-05T03:10:31.481Z,19.94
2022-10-05T03:11:31.450Z,19.92
2022-10-05T03:12:31.445Z,19.90
2022-10-05T03:13:31.462Z,19.92
2022-10-05T03:14:31.534Z,19.89
2022-10-05T03:15:31.503Z,19.89
2022-10-05T03:16:31.664Z,19.92
2022-10-05T03:17:31.548Z,19.92
2022-10-05T03:18:31.565Z,19.92
2022-10-05T03:19:31.581Z,19.90
2022-10-05T03:20:31.574Z,19.90
2022-10-05T03:21:31.575Z,19.89
2022-10-05T03:22:31.582Z,19.87
2022-10-05T03:23:31.619Z,19.86
2022-10-05T03:24:31.665Z,19.87
2022-10-05T03:25:31.657Z,19.86
2022-10-05T03:26:31.661Z,19.86
2022-10-05T03:27:31.697Z,19.87
2022-10-05T03:28:31.805Z,19.87
2022-10-05T03:29:31.739Z,19.86
2022-10-05T03:30:31.709Z,19.87
2022-10-05T03:31:31.817Z,19.86
2022-10-05T03:32:31.737Z,19.85
2022-10-05T03:33:31.748Z,19.83
2022-10-05T03:34:31.775Z,19.83
2022-10-05T03:35:31.753Z,19.83
2022-10-05T03:36:31.759Z,19.87
2022-10-05T03:37:31.782Z,19.86
2022-10-05T03:38:31.800Z,19.86
2022-10-05T03:39:31.832Z,19.83
2022-10-05T03:40:31.874Z,19.82
2022-10-05T03:41:31.870Z,19.83
2022-10-05T03:42:31.899Z,19.85
2022-10-05T03:43:31.935Z,19.85
2022-10-05T03:44:31.922Z,19.86
2022-10-05T03:45:31.900Z,19.85
2022-10-05T03:46:31.990Z,19.85
2022-10-05T03:47:31.940Z,19.85
2022-10-05T03:48:31.967Z,19.85
2022-10-05T03:49:32.013Z,19.85
2022-10-05T03:50:31.998Z,19.82
2022-10-05T03:51:32.007Z,19.82
2022-10-05T03:52:32.005Z,19.80
2022-10-05T03:53:32.017Z,19.78
2022-10-05T03:54:32.128Z,19.79
2022-10-05T03:55:32.038Z,19.78
2022-10-05T03:56:32.083Z,19.75
2022-10-05T03:57:32.079Z,19.76
2022-10-05T03:58:32.106Z,19.75
2022-10-05T03:59:32.722Z,19.76
2022-10-05T04:00:32.158Z,19.76
2022-10-05T04:01:32.254Z,19.76
2022-10-05T04:02:32.287Z,19.78
2022-10-05T04:03:32.199Z,19.78
2022-10-05T04:04:32.228Z,19.78
2022-10-05T04:05:32.219Z,19.78
2022-10-05T04:06:32.214Z,19.78
2022-10-05T04:07:32.452Z,19.76
2022-10-05T04:08:32.214Z,19.80
2022-10-05T04:09:32.238Z,19.79
2022-10-05T04:10:32.258Z,19.78
2022-10-05T04:11:32.273Z,19.78
2022-10-05T04:12:32.312Z,19.79
2022-10-05T04:13:32.333Z,19.78
2022-10-05T04:14:32.304Z,19.79
2022-10-05T04:15:32.414Z,19.82
2022-10-05T04:16:32.341Z,19.83
2022-10-05T04:17:32.367Z,19.80
2022-10-05T04:18:32.403Z,19.80
2022-10-05T04:19:32.390Z,19.82
2022-10-05T04:20:32.393Z,19.83
2022-10-05T04:21:32.422Z,19.82
2022-10-05T04:22:32.458Z,19.80
2022-10-05T04:23:32.471Z,19.82
2022-10-05T04:24:32.476Z,19.82
2022-10-05T04:25:32.519Z,19.78
2022-10-05T04:26:32.485Z,19.78
2022-10-05T04:27:32.533Z,19.78
2022-10-05T04:28:32.749Z,19.82
2022-10-05T04:29:32.520Z,19.80
2022-10-05T04:30:32.520Z,19.80
2022-10-05T04:31:32.761Z,19.80
2022-10-05T04:32:32.584Z,19.79
2022-10-05T04:33:32.567Z,19.79
2022-10-05T04:34:32.594Z,19.79
2022-10-05T04:35:32.606Z,19.79
2022-10-05T04:36:32.628Z,19.79
2022-10-05T04:37:32.661Z,19.82
2022-10-05T04:38:32.735Z,19.78
2022-10-05T04:39:32.687Z,19.78
2022-10-05T04:40:32.697Z,19.75
2022-10-05T04:41:32.728Z,19.78
2022-10-05T04:42:32.730Z,19.79
2022-10-05T04:43:32.790Z,19.79
2022-10-05T04:44:32.786Z,19.78
2022-10-05T04:45:32.735Z,19.79
2022-10-05T04:46:32.827Z,19.78
2022-10-05T04:47:32.732Z,19.78
2022-10-05T04:48:32.734Z,19.78
2022-10-05T04:49:32.743Z,19.79
2022-10-05T04:50:32.769Z,19.80
2022-10-05T04:51:32.760Z,19.78
2022-10-05T04:52:32.793Z,19.76
2022-10-05T04:53:32.797Z,19.78
2022-10-05T04:54:32.804Z,19.78
2022-10-05T04:55:32.836Z,19.76
2022-10-05T04:56:32.836Z,19.75
2022-10-05T04:57:32.871Z,19.78
2022-10-05T04:58:32.855Z,19.76
2022-10-05T04:59:32.842Z,19.75
2022-10-05T05:01:58.820Z,19.75
2022-10-05T05:02:58.775Z,19.76
2022-10-05T05:03:58.811Z,19.79
2022-10-05T05:04:58.790Z,19.75
2022-10-05T05:06:16.367Z,19.75
2022-10-05T05:06:58.784Z,19.75
2022-10-05T05:07:58.801Z,19.72
2022-10-05T05:08:58.799Z,19.72
2022-10-05T05:09:58.829Z,19.71
2022-10-05T05:10:58.879Z,19.71
2022-10-05T05:11:58.882Z,19.75
2022-10-05T05:12:58.904Z,19.71
2022-10-05T05:13:58.900Z,19.75
2022-10-05T05:14:58.947Z,19.71
2022-10-05T05:15:58.961Z,19.76
2022-10-05T05:16:58.907Z,19.75
2022-10-05T05:17:58.952Z,19.76
2022-10-05T05:18:58.964Z,19.76
2022-10-05T05:19:58.959Z,19.78
2022-10-05T05:20:58.986Z,19.78
2022-10-05T05:21:59.004Z,19.75
2022-10-05T05:22:59.029Z,19.76
2022-10-05T05:23:59.083Z,19.72
2022-10-05T05:24:59.076Z,19.72
2022-10-05T05:25:59.079Z,19.72
2022-10-05T05:26:59.085Z,19.72
2022-10-05T05:27:59.128Z,19.71
2022-10-05T05:28:59.117Z,19.72
2022-10-05T05:29:59.167Z,19.71
2022-10-05T05:30:59.188Z,19.72
2022-10-05T05:31:59.157Z,19.71
2022-10-05T05:32:59.172Z,19.71
2022-10-05T05:33:59.227Z,19.70
2022-10-05T05:34:59.181Z,19.70
2022-10-05T05:35:59.198Z,19.70
2022-10-05T05:36:59.273Z,19.71
2022-10-05T05:37:59.238Z,19.71
2022-10-05T05:38:59.244Z,19.70
2022-10-05T05:39:59.233Z,19.68
2022-10-05T05:40:59.299Z,19.71
2022-10-05T05:41:59.251Z,19.70
2022-10-05T05:42:59.300Z,19.72
2022-10-05T05:43:59.302Z,19.75
2022-10-05T05:44:59.311Z,19.72
2022-10-05T05:45:59.342Z,19.71
2022-10-05T05:47:04.019Z,19.70
2022-10-05T05:47:59.388Z,19.75
2022-10-05T05:48:59.392Z,19.86
2022-10-05T05:50:05.593Z,19.95
2022-10-05T05:50:59.427Z,19.98
2022-10-05T05:51:59.426Z,20.07
2022-10-05T05:52:59.466Z,20.13
2022-10-05T05:53:59.468Z,20.17
2022-10-05T05:54:59.455Z,20.25
2022-10-05T05:55:59.427Z,20.33
2022-10-05T05:56:59.439Z,20.44
2022-10-05T05:57:59.460Z,20.54
2022-10-05T05:58:59.425Z,20.61
2022-10-05T05:59:59.434Z,20.71
2022-10-05T06:00:59.452Z,20.79
2022-10-05T06:01:59.603Z,20.85
2022-10-05T06:02:59.617Z,20.94
2022-10-05T06:03:59.524Z,20.98
2022-10-05T06:04:59.549Z,21.08
2022-10-05T06:05:59.597Z,21.16
2022-10-05T06:06:59.572Z,21.22
2022-10-05T06:07:59.595Z,21.31
2022-10-05T06:08:59.598Z,21.08
2022-10-05T06:09:59.599Z,20.58
2022-10-05T06:10:59.596Z,20.01
2022-10-05T06:11:59.623Z,20.04
2022-10-05T06:13:01.878Z,19.95
2022-10-05T06:13:59.641Z,19.76
2022-10-05T06:14:59.654Z,19.89
2022-10-05T06:15:59.675Z,19.86
2022-10-05T06:16:59.664Z,19.86
2022-10-05T06:17:59.703Z,20.19
2022-10-05T06:18:59.677Z,20.27
2022-10-05T06:20:04.666Z,20.19
2022-10-05T06:20:59.704Z,20.08
2022-10-05T06:21:59.747Z,20.19
2022-10-05T06:22:59.755Z,20.19
2022-10-05T06:24:00.331Z,20.17
2022-10-05T06:24:59.753Z,20.17
2022-10-05T06:25:59.759Z,20.10
2022-10-05T06:26:59.777Z,20.13
2022-10-05T06:27:59.793Z,20.08
2022-10-05T06:29:00.008Z,20.15
2022-10-05T06:29:59.751Z,20.19
2022-10-05T06:30:59.757Z,20.26
2022-10-05T06:31:59.885Z,19.95
2022-10-05T06:32:59.974Z,19.75
2022-10-05T06:33:59.835Z,19.61
2022-10-05T06:34:59.863Z,19.52
2022-10-05T06:35:59.843Z,19.61
2022-10-05T06:36:59.872Z,19.39
2022-10-05T06:37:59.915Z,19.25
2022-10-05T06:38:59.907Z,19.12
2022-10-05T06:40:01.275Z,19.13
2022-10-05T06:40:59.980Z,19.10
2022-10-05T06:42:00.012Z,19.06
2022-10-05T06:42:59.982Z,19.06
2022-10-05T06:44:00.004Z,19.10
2022-10-05T06:45:00.039Z,19.09
2022-10-05T06:46:00.098Z,18.97
2022-10-05T06:47:00.008Z,18.83
2022-10-05T06:48:04.945Z,18.64
2022-10-05T06:49:00.081Z,18.62
2022-10-05T06:50:00.054Z,18.59
2022-10-05T06:51:00.087Z,18.54
2022-10-05T06:52:00.063Z,18.51
2022-10-05T06:53:00.087Z,18.49
2022-10-05T06:54:00.141Z,18.57
2022-10-05T06:55:00.114Z,18.64
2022-10-05T06:56:00.116Z,18.57
2022-10-05T06:57:00.132Z,18.64
2022-10-05T06:58:00.154Z,18.53
2022-10-05T06:59:00.160Z,18.60
2022-10-05T07:00:00.171Z,18.62
2022-10-05T07:01:00.259Z,18.54
2022-10-05T07:02:00.251Z,18.57
2022-10-05T07:03:00.176Z,18.62
2022-10-05T07:04:00.203Z,18.38
2022-10-05T07:05:00.222Z,18.39
2022-10-05T07:06:00.158Z,18.32
2022-10-05T07:07:00.163Z,18.41
2022-10-05T07:08:00.201Z,18.50
2022-10-05T07:09:00.245Z,18.59
2022-10-05T07:10:00.233Z,18.78
2022-10-05T07:11:00.203Z,18.69
2022-10-05T07:12:04.881Z,18.89
2022-10-05T07:13:00.251Z,18.96
2022-10-05T07:14:00.229Z,18.96
2022-10-05T07:15:00.248Z,18.97
2022-10-05T07:16:00.335Z,18.93
2022-10-05T07:17:00.351Z,18.90
2022-10-05T07:18:00.304Z,18.89
2022-10-05T07:19:00.281Z,18.91
2022-10-05T07:20:00.303Z,18.99
2022-10-05T07:21:00.289Z,19.06
2022-10-05T07:22:00.494Z,18.96
2022-10-05T07:23:00.356Z,18.97
2022-10-05T07:24:00.332Z,19.05
2022-10-05T07:25:00.389Z,19.12
2022-10-05T07:26:00.538Z,19.06
2022-10-05T07:27:00.383Z,19.02
2022-10-05T07:28:00.522Z,19.02
2022-10-05T07:29:00.429Z,18.96
2022-10-05T07:30:00.440Z,18.97
2022-10-05T07:31:00.559Z,19.02
2022-10-05T07:32:00.646Z,18.93
2022-10-05T07:33:00.511Z,18.99
2022-10-05T07:34:00.492Z,19.02
2022-10-05T07:35:00.542Z,19.07
2022-10-05T07:36:00.513Z,19.20
2022-10-05T07:37:00.546Z,19.12
2022-10-05T07:38:00.681Z,18.97
2022-10-05T07:39:00.626Z,18.97
2022-10-05T07:40:01.477Z,18.93
2022-10-05T07:41:00.629Z,18.89
2022-10-05T07:42:00.647Z,18.89
2022-10-05T07:43:00.659Z,18.93
2022-10-05T07:44:02.992Z,18.87
2022-10-05T07:45:00.687Z,18.84
2022-10-05T07:46:00.794Z,18.84
2022-10-05T07:47:00.728Z,18.78
2022-10-05T07:48:00.751Z,18.87
2022-10-05T07:49:00.769Z,18.84
2022-10-05T07:50:00.841Z,18.87
2022-10-05T07:51:00.793Z,18.86
2022-10-05T07:52:00.877Z,18.94
2022-10-05T07:53:00.836Z,18.99
2022-10-05T07:54:00.828Z,18.99
2022-10-05T07:55:00.834Z,19.07
2022-10-05T07:56:00.886Z,19.06
2022-10-05T07:57:00.863Z,19.09
2022-10-05T07:58:00.913Z,19.12
2022-10-05T07:59:00.966Z,19.09
2022-10-05T08:00:00.926Z,19.06
2022-10-05T08:01:00.973Z,19.06
2022-10-05T08:02:01.127Z,19.06
2022-10-05T08:03:01.044Z,18.93
2022-10-05T08:04:00.934Z,18.93
2022-10-05T08:05:00.955Z,19.06
2022-10-05T08:06:00.933Z,18.97
2022-10-05T08:07:00.940Z,19.01
2022-10-05T08:08:00.909Z,19.09
2022-10-05T08:09:00.988Z,19.16
2022-10-05T08:10:00.958Z,19.09
2022-10-05T08:11:01.040Z,19.15
2022-10-05T08:12:01.147Z,19.23
2022-10-05T08:13:01.013Z,19.16
2022-10-05T08:14:01.097Z,19.09
2022-10-05T08:15:01.056Z,19.07
2022-10-05T08:16:01.133Z,18.96
2022-10-05T08:17:01.096Z,19.01
2022-10-05T08:18:01.076Z,19.05
2022-10-05T08:19:01.069Z,19.02
2022-10-05T08:20:01.094Z,18.94
2022-10-05T08:21:01.169Z,18.96
2022-10-05T08:22:01.203Z,18.99
2022-10-05T08:23:01.158Z,19.02
2022-10-05T08:24:01.187Z,19.16
2022-10-05T08:25:01.304Z,19.21
2022-10-05T08:26:01.222Z,19.21
2022-10-05T08:27:01.219Z,19.17
2022-10-05T08:28:01.274Z,19.15
2022-10-05T08:29:01.239Z,19.13
2022-10-05T08:30:01.366Z,19.12
2022-10-05T08:31:01.343Z,19.23
2022-10-05T08:32:01.265Z,19.27
2022-10-05T08:33:01.289Z,19.21
2022-10-05T08:34:01.311Z,19.07
2022-10-05T08:35:01.335Z,19.02
2022-10-05T08:36:01.370Z,19.05
2022-10-05T08:37:01.394Z,19.13
2022-10-05T08:38:01.404Z,19.32
2022-10-05T08:39:01.540Z,19.35
2022-10-05T08:40:01.442Z,19.32
2022-10-05T08:41:01.446Z,19.35
2022-10-05T08:42:01.455Z,19.49
2022-10-05T08:43:01.476Z,19.55
2022-10-05T08:44:01.533Z,19.52
2022-10-05T08:45:01.541Z,19.55
2022-10-05T08:46:01.778Z,19.49
2022-10-05T08:47:01.520Z,19.55
2022-10-05T08:48:01.597Z,19.62
2022-10-05T08:49:01.547Z,19.65
2022-10-05T08:50:01.590Z,19.68
2022-10-05T08:51:01.615Z,19.72
2022-10-05T08:52:01.589Z,19.76
2022-10-05T08:53:01.620Z,19.90
2022-10-05T08:54:01.646Z,20.05
2022-10-05T08:55:01.753Z,20.10
2022-10-05T08:56:01.749Z,20.16
2022-10-05T08:57:01.753Z,20.12
2022-10-05T08:58:01.719Z,20.10
2022-10-05T08:59:01.749Z,20.13
2022-10-05T09:00:01.731Z,20.23
2022-10-05T09:01:01.840Z,20.35
2022-10-05T09:02:01.793Z,20.51
2022-10-05T09:03:01.884Z,20.66
2022-10-05T09:04:01.792Z,20.79
2022-10-05T09:05:01.809Z,20.94
2022-10-05T09:06:01.832Z,21.06
2022-10-05T09:07:01.798Z,21.13
2022-10-05T09:08:01.808Z,21.19
2022-10-05T09:09:02.456Z,21.34
2022-10-05T09:10:02.201Z,21.53
2022-10-05T09:11:01.853Z,21.61
2022-10-05T09:12:01.846Z,21.64
2022-10-05T09:13:01.868Z,21.70
2022-10-05T09:14:01.879Z,21.85
2022-10-05T09:15:24.440Z,22.06
2022-10-05T09:16:02.578Z,22.17
2022-10-05T09:17:01.938Z,22.30
2022-10-05T09:18:01.978Z,22.35
2022-10-05T09:19:02.127Z,22.42
2022-10-05T09:20:02.007Z,22.42
2022-10-05T09:21:02.060Z,22.46
2022-10-05T09:22:02.021Z,22.48
2022-10-05T09:23:02.026Z,22.56
2022-10-05T09:24:02.019Z,22.63
2022-10-05T09:25:02.041Z,22.76
2022-10-05T09:26:02.020Z,22.88
2022-10-05T09:27:02.069Z,22.93
2022-10-05T09:28:02.093Z,22.94
2022-10-05T09:29:02.061Z,22.99
2022-10-05T09:30:02.096Z,23.00
2022-10-05T09:31:02.264Z,22.99
2022-10-05T09:32:02.169Z,23.01
2022-10-05T09:33:02.135Z,23.06
2022-10-05T09:34:02.332Z,23.09
2022-10-05T09:35:02.151Z,23.18
2022-10-05T09:36:02.161Z,23.25
2022-10-05T09:37:02.195Z,23.26
2022-10-05T09:38:02.209Z,23.35
2022-10-05T09:39:02.206Z,23.32
2022-10-05T09:40:02.219Z,23.34
2022-10-05T09:41:02.244Z,23.34
2022-10-05T09:42:02.295Z,23.37
2022-10-05T09:43:02.255Z,23.42
2022-10-05T09:44:02.331Z,23.45
2022-10-05T09:45:02.309Z,23.52
2022-10-05T09:46:02.356Z,23.54
2022-10-05T09:47:02.343Z,23.56
2022-10-05T09:48:02.334Z,23.64
2022-10-05T09:49:02.331Z,23.71
2022-10-05T09:50:02.568Z,23.75
2022-10-05T09:51:02.355Z,23.84
2022-10-05T09:52:02.334Z,23.92
2022-10-05T09:53:02.348Z,23.90
2022-10-05T09:54:02.362Z,23.92
2022-10-05T09:55:02.411Z,23.97
2022-10-05T09:56:02.415Z,23.99
2022-10-05T09:57:02.428Z,24.06
2022-10-05T09:58:02.463Z,24.14
2022-10-05T09:59:02.499Z,24.27
2022-10-05T10:00:02.576Z,24.26
2022-10-05T10:01:09.313Z,24.21
2022-10-05T10:02:02.604Z,24.18
2022-10-05T10:03:02.738Z,24.21
2022-10-05T10:04:02.596Z,24.23
2022-10-05T10:05:02.535Z,24.23
2022-10-05T10:06:02.611Z,24.33
2022-10-05T10:07:02.566Z,24.33
2022-10-05T10:08:02.659Z,24.33
2022-10-05T10:09:02.627Z,24.31
2022-10-05T10:10:02.652Z,24.36
2022-10-05T10:11:02.695Z,24.37
2022-10-05T10:12:02.676Z,24.42
2022-10-05T10:13:02.725Z,24.41
2022-10-05T10:14:02.711Z,24.45
2022-10-05T10:15:03.212Z,24.51
2022-10-05T10:16:02.802Z,24.53
2022-10-05T10:17:02.758Z,24.59
2022-10-05T10:18:02.723Z,24.66
2022-10-05T10:19:02.790Z,24.77
2022-10-05T10:20:02.784Z,24.74
2022-10-05T10:21:02.876Z,24.71
2022-10-05T10:22:02.788Z,24.70
2022-10-05T10:23:02.804Z,24.75
2022-10-05T10:24:02.844Z,24.74
2022-10-05T10:25:02.847Z,24.83
2022-10-05T10:26:02.891Z,24.84
2022-10-05T10:27:02.852Z,24.84
2022-10-05T10:28:02.945Z,24.90
2022-10-05T10:29:02.943Z,24.93
2022-10-05T10:30:02.915Z,24.97
2022-10-05T10:31:02.980Z,25.01
2022-10-05T10:32:02.927Z,25.12
2022-10-05T10:33:02.895Z,25.12
2022-10-05T10:34:02.943Z,25.14
2022-10-05T10:35:02.957Z,25.16
2022-10-05T10:36:06.139Z,25.26
2022-10-05T10:37:02.974Z,25.23
2022-10-05T10:38:03.067Z,25.30
2022-10-05T10:39:03.029Z,25.30
2022-10-05T10:40:03.066Z,25.30
2022-10-05T10:41:03.076Z,25.27
2022-10-05T10:42:03.081Z,25.27
2022-10-05T10:43:03.251Z,25.35
2022-10-05T10:44:03.090Z,25.42
2022-10-05T10:45:03.068Z,25.42
2022-10-05T10:46:03.178Z,25.44
2022-10-05T10:47:03.126Z,25.48
2022-10-05T10:48:03.201Z,25.48
2022-10-05T10:49:03.186Z,25.51
2022-10-05T10:50:03.160Z,25.49
2022-10-05T10:51:03.186Z,25.49
2022-10-05T10:52:03.204Z,25.53
2022-10-05T10:53:03.212Z,25.57
2022-10-05T10:54:03.375Z,25.64
2022-10-05T10:55:03.318Z,25.69
2022-10-05T10:56:03.301Z,25.72
2022-10-05T10:57:03.257Z,25.75
2022-10-05T10:58:03.295Z,25.75
2022-10-05T10:59:03.331Z,25.81
2022-10-05T11:00:03.319Z,25.83
2022-10-05T11:01:03.344Z,25.85
2022-10-05T11:02:03.409Z,25.83
2022-10-05T11:03:03.507Z,25.85
2022-10-05T11:04:03.419Z,25.86
2022-10-05T11:05:03.478Z,26.00
2022-10-05T11:06:03.423Z,26.06
2022-10-05T11:07:03.421Z,26.09
2022-10-05T11:08:03.466Z,26.04
2022-10-05T11:09:03.492Z,26.06
2022-10-05T11:10:03.587Z,26.08
2022-10-05T11:11:03.545Z,26.08
2022-10-05T11:12:03.545Z,26.13
2022-10-05T11:13:03.582Z,26.11
2022-10-05T11:14:03.580Z,26.12
2022-10-05T11:15:03.656Z,26.16
2022-10-05T11:16:03.848Z,26.17
2022-10-05T11:17:03.634Z,26.19
2022-10-05T11:18:03.617Z,26.21
2022-10-05T11:19:03.654Z,26.17
2022-10-05T11:20:04.781Z,26.16
2022-10-05T11:21:03.673Z,26.13
2022-10-05T11:22:03.732Z,26.11
2022-10-05T11:23:03.711Z,26.12
2022-10-05T11:24:03.745Z,26.09
2022-10-05T11:25:03.754Z,26.13
2022-10-05T11:26:03.812Z,26.17
2022-10-05T11:27:03.793Z,26.12
2022-10-05T11:28:03.933Z,26.09
2022-10-05T11:29:03.786Z,26.16
2022-10-05T11:30:03.835Z,26.16
2022-10-05T11:31:03.849Z,26.16
2022-10-05T11:32:03.885Z,26.16
2022-10-05T11:33:03.810Z,26.17
2022-10-05T11:34:03.828Z,26.16
2022-10-05T11:35:03.849Z,26.17
2022-10-05T11:36:03.885Z,26.17
2022-10-05T11:37:03.850Z,26.19
2022-10-05T11:38:03.862Z,26.13
2022-10-05T11:39:03.890Z,26.11
2022-10-05T11:40:04.030Z,26.12
2022-10-05T11:41:04.041Z,26.12
2022-10-05T11:42:03.993Z,26.13
2022-10-05T11:43:03.948Z,26.13
2022-10-05T11:44:06.352Z,26.16
2022-10-05T11:45:03.965Z,26.13
2022-10-05T11:46:04.056Z,26.11
2022-10-05T11:47:03.991Z,26.06
2022-10-05T11:48:04.013Z,26.06
2022-10-05T11:49:04.089Z,26.04
2022-10-05T11:50:04.120Z,26.06
2022-10-05T11:51:04.078Z,26.06
2022-10-05T11:52:04.047Z,26.04
2022-10-05T11:53:04.031Z,26.04
2022-10-05T11:54:04.061Z,26.01
2022-10-05T11:55:12.348Z,25.98
2022-10-05T11:56:04.237Z,25.98
2022-10-05T11:57:04.129Z,25.96
2022-10-05T11:58:04.124Z,25.93
2022-10-05T11:59:04.127Z,25.94
2022-10-05T12:00:04.191Z,25.94
2022-10-05T12:01:04.135Z,25.94
2022-10-05T12:02:04.185Z,25.91
2022-10-05T12:03:04.360Z,25.82
2022-10-05T12:04:04.247Z,25.83
2022-10-05T12:05:04.156Z,25.86
2022-10-05T12:06:04.232Z,25.89
2022-10-05T12:07:04.219Z,25.89
2022-10-05T12:08:04.207Z,25.91
2022-10-05T12:09:04.214Z,25.81
2022-10-05T12:10:04.333Z,25.78
2022-10-05T12:11:04.261Z,25.79
2022-10-05T12:12:04.305Z,25.81
2022-10-05T12:13:04.289Z,25.75
2022-10-05T12:14:04.338Z,25.71
2022-10-05T12:15:04.342Z,25.75
2022-10-05T12:16:04.430Z,25.78
2022-10-05T12:17:04.408Z,25.81
2022-10-05T12:18:04.377Z,25.69
2022-10-05T12:19:04.444Z,25.67
2022-10-05T12:20:04.560Z,25.72
2022-10-05T12:21:04.396Z,25.72
2022-10-05T12:22:04.389Z,25.75
2022-10-05T12:23:04.434Z,25.78
2022-10-05T12:24:04.409Z,25.74
2022-10-05T12:25:04.396Z,25.74
2022-10-05T12:26:04.416Z,25.72
2022-10-05T12:27:04.456Z,25.66
2022-10-05T12:28:04.576Z,25.66
2022-10-05T12:29:04.505Z,25.66
2022-10-05T12:30:04.551Z,25.67
2022-10-05T12:31:04.555Z,25.67
2022-10-05T12:32:04.541Z,25.63
2022-10-05T12:33:04.564Z,25.63
2022-10-05T12:34:04.544Z,25.61
2022-10-05T12:35:04.571Z,25.63
2022-10-05T12:36:04.653Z,25.61
2022-10-05T12:37:05.359Z,25.54
2022-10-05T12:38:04.628Z,25.54
2022-10-05T12:39:04.609Z,25.53
2022-10-05T12:40:04.684Z,25.56
2022-10-05T12:41:04.717Z,25.54
2022-10-05T12:42:04.684Z,25.49
2022-10-05T12:43:04.688Z,25.48
2022-10-05T12:44:04.725Z,25.42
2022-10-05T12:45:04.711Z,25.30
2022-10-05T12:46:04.827Z,25.29
2022-10-05T12:47:04.716Z,25.24
2022-10-05T12:48:04.720Z,25.24
2022-10-05T12:49:04.749Z,25.27
2022-10-05T12:50:04.803Z,25.30
2022-10-05T12:51:04.796Z,25.35
2022-10-05T12:52:04.808Z,25.35
2022-10-05T12:53:04.788Z,25.38
2022-10-05T12:54:04.821Z,25.35